createdAt,value
2019-01-05T00:00:42.158Z,4.10
2019-01-05T00:03:27.419Z,4.17
2019-01-05T00:06:01.934Z,4.37
2019-01-05T00:08:33.296Z,4.10
2019-01-05T00:11:21.261Z,4.13
2019-01-05T00:13:53.002Z,4.17
2019-01-05T00:16:32.175Z,4.10
2019-01-05T00:19:10.906Z,4.10
2019-01-05T00:22:10.013Z,3.52
2019-01-05T00:24:50.113Z,5.00
2019-01-05T00:27:38.960Z,2.77
2019-01-05T00:30:21.173Z,3.37
2019-01-05T00:33:08.816Z,3.40
2019-01-05T00:35:54.978Z,4.00
2019-01-05T00:38:36.383Z,3.22
2019-01-05T00:44:15.111Z,4.42
2019-01-05T00:46:50.045Z,4.83
2019-01-05T00:49:26.845Z,5.15
2019-01-05T00:52:04.020Z,4.22
2019-01-05T00:54:54.317Z,4.85
2019-01-05T00:57:29.180Z,4.25
2019-01-05T01:00:11.062Z,4.72
2019-01-05T01:03:05.661Z,3.97
2019-01-05T01:05:53.784Z,4.47
2019-01-05T01:08:28.812Z,3.60
2019-01-05T01:11:06.108Z,4.33
2019-01-05T01:13:40.460Z,4.62
2019-01-05T01:16:30.099Z,4.33
2019-01-05T01:19:17.951Z,4.47
2019-01-05T01:21:53.314Z,4.00
2019-01-05T01:24:43.074Z,4.30
2019-01-05T01:27:24.844Z,4.17
2019-01-05T01:30:15.073Z,4.03
2019-01-05T01:33:02.687Z,4.15
2019-01-05T01:35:52.862Z,3.80
2019-01-05T01:38:30.533Z,4.08
2019-01-05T01:41:14.012Z,4.12
2019-01-05T01:43:45.977Z,5.60
2019-01-05T01:46:21.321Z,6.53
2019-01-05T01:49:09.673Z,3.73
2019-01-05T01:51:46.339Z,3.33
2019-01-05T01:54:29.204Z,2.98
2019-01-05T01:57:22.070Z,3.00
2019-01-05T01:59:56.746Z,3.00
2019-01-05T02:02:28.394Z,3.20
2019-01-05T02:05:12.961Z,2.92
2019-01-05T02:07:59.256Z,3.25
2019-01-05T02:10:52.163Z,3.75
2019-01-05T02:13:41.888Z,3.40
2019-01-05T02:16:34.566Z,3.72
2019-01-05T02:19:14.848Z,4.00
2019-01-05T02:22:03.975Z,3.90
2019-01-05T02:25:10.538Z,4.17
2019-01-05T02:27:57.340Z,4.35
2019-01-05T02:30:55.638Z,4.78
2019-01-05T02:33:41.947Z,4.08
2019-01-05T02:36:47.235Z,3.72
2019-01-05T02:39:58.381Z,4.15
2019-01-05T02:43:18.868Z,3.58
2019-01-05T02:46:28.096Z,3.83
2019-01-05T02:49:29.790Z,3.20
2019-01-05T02:52:22.516Z,4.30
2019-01-05T02:55:14.950Z,3.45
2019-01-05T02:58:04.135Z,4.35
2019-01-05T03:00:56.553Z,3.50
2019-01-05T03:04:10.283Z,3.05
2019-01-05T03:07:13.339Z,3.22
2019-01-05T03:10:05.455Z,3.50
2019-01-05T03:12:58.634Z,3.10
2019-01-05T03:16:01.185Z,3.52
2019-01-05T03:18:54.776Z,3.27
2019-01-05T03:21:55.553Z,3.63
2019-01-05T03:24:54.391Z,3.10
2019-01-05T03:28:00.590Z,3.27
2019-01-05T03:31:20.455Z,5.57
2019-01-05T03:34:27.306Z,5.15
2019-01-05T03:37:32.018Z,3.50
2019-01-05T03:40:29.205Z,3.60
2019-01-05T03:43:24.516Z,4.55
2019-01-05T03:46:32.880Z,4.87
2019-01-05T03:49:55.690Z,4.40
2019-01-05T03:52:49.257Z,4.97
2019-01-05T03:55:38.527Z,4.80
2019-01-05T03:58:52.484Z,4.60
2019-01-05T04:01:32.301Z,4.90
2019-01-05T04:04:12.683Z,4.50
2019-01-05T04:07:10.562Z,4.87
2019-01-05T04:09:52.100Z,4.80
2019-01-05T04:13:01.393Z,5.12
2019-01-05T04:15:50.877Z,4.40
2019-01-05T04:19:12.402Z,4.45
2019-01-05T04:22:18.149Z,4.50
2019-01-05T04:25:30.632Z,4.35
2019-01-05T04:28:31.604Z,4.30
2019-01-05T04:31:37.731Z,4.05
2019-01-05T04:34:21.936Z,3.77
2019-01-05T04:37:15.912Z,4.53
2019-01-05T04:40:12.858Z,4.00
2019-01-05T04:43:08.352Z,3.55
2019-01-05T04:46:03.793Z,3.75
2019-01-05T04:48:56.225Z,5.85
2019-01-05T04:51:45.887Z,4.87
2019-01-05T04:54:52.690Z,3.22
2019-01-05T04:58:09.083Z,2.90
2019-01-05T05:00:48.925Z,2.60
2019-01-05T05:03:39.517Z,2.60
2019-01-05T05:06:40.435Z,3.00
2019-01-05T05:09:37.179Z,3.37
2019-01-05T05:12:26.942Z,4.20
2019-01-05T05:15:37.588Z,3.67
2019-01-05T05:18:26.322Z,2.97
2019-01-05T05:21:15.304Z,3.23
2019-01-05T05:24:12.719Z,4.07
2019-01-05T05:27:13.872Z,3.23
2019-01-05T05:30:08.372Z,4.27
2019-01-05T05:32:51.388Z,4.20
2019-01-05T05:36:03.491Z,3.23
2019-01-05T05:39:08.189Z,3.70
2019-01-05T05:41:45.743Z,3.43
2019-01-05T05:44:26.696Z,3.30
2019-01-05T05:47:15.920Z,3.40
2019-01-05T05:50:25.131Z,5.17
2019-01-05T05:53:07.985Z,4.57
2019-01-05T05:55:57.414Z,4.50
2019-01-05T05:58:34.306Z,4.13
2019-01-05T06:01:47.500Z,3.37
2019-01-05T06:05:10.247Z,4.50
2019-01-05T06:08:01.140Z,4.43
2019-01-05T06:10:44.417Z,4.70
2019-01-05T06:14:04.303Z,4.03
2019-01-05T06:16:55.012Z,3.87
2019-01-05T06:19:39.462Z,4.10
2019-01-05T06:22:45.110Z,3.40
2019-01-05T06:25:50.167Z,4.00
2019-01-05T06:29:08.291Z,4.40
2019-01-05T06:32:28.729Z,4.47
2019-01-05T06:35:06.608Z,4.13
2019-01-05T06:37:59.051Z,3.77
2019-01-05T06:40:53.031Z,3.73
2019-01-05T06:43:42.299Z,3.77
2019-01-05T06:46:50.681Z,4.13
2019-01-05T06:50:00.951Z,5.23
2019-01-05T06:53:08.804Z,6.27
2019-01-05T06:55:54.680Z,5.30
2019-01-05T06:58:38.101Z,5.60
2019-01-05T07:01:47.643Z,5.10
2019-01-05T07:04:21.927Z,5.05
2019-01-05T07:07:36.432Z,5.40
2019-01-05T07:10:58.889Z,4.90
2019-01-05T07:13:58.810Z,4.77
2019-01-05T07:17:08.576Z,4.73
2019-01-05T07:20:15.013Z,6.37
2019-01-05T07:23:21.272Z,5.27
2019-01-05T07:26:32.074Z,6.07
2019-01-05T07:29:42.902Z,5.63
2019-01-05T07:32:49.019Z,5.73
2019-01-05T07:35:51.773Z,5.50
2019-01-05T07:38:47.595Z,5.77
2019-01-05T07:41:31.442Z,5.97
2019-01-05T07:44:34.158Z,6.30
2019-01-05T07:47:44.868Z,5.97
2019-01-05T07:51:09.109Z,5.80
2019-01-05T07:54:04.363Z,6.23
2019-01-05T07:57:09.982Z,6.10
2019-01-05T08:00:04.658Z,6.43
2019-01-05T08:03:11.751Z,6.00
2019-01-05T08:06:32.505Z,6.23
2019-01-05T08:09:24.685Z,6.33
2019-01-05T08:12:06.410Z,6.20
2019-01-05T08:14:46.859Z,7.20
2019-01-05T08:17:42.335Z,6.37
2019-01-05T08:20:43.706Z,6.87
2019-01-05T08:23:43.114Z,5.93
2019-01-05T08:26:33.875Z,6.17
2019-01-05T08:29:08.956Z,5.73
2019-01-05T08:32:25.489Z,5.63
2019-01-05T08:35:14.167Z,4.80
2019-01-05T08:38:40.565Z,5.03
2019-01-05T08:41:54.809Z,4.90
2019-01-05T08:45:06.258Z,5.50
2019-01-05T08:48:13.408Z,5.80
2019-01-05T08:51:25.509Z,5.00
2019-01-05T08:54:25.426Z,5.03
2019-01-05T08:57:21.347Z,5.13
2019-01-05T09:00:29.095Z,3.90
2019-01-05T09:03:21.880Z,4.30
2019-01-05T09:06:34.576Z,5.67
2019-01-05T09:09:51.613Z,6.57
2019-01-05T09:12:46.851Z,4.57
2019-01-05T09:15:36.428Z,5.63
2019-01-05T09:18:44.283Z,5.13
2019-01-05T09:21:54.199Z,6.23
2019-01-05T09:24:58.727Z,5.97
2019-01-05T09:27:42.215Z,5.40
2019-01-05T09:30:46.668Z,5.90
2019-01-05T09:33:40.048Z,5.13
2019-01-05T09:36:55.762Z,4.73
2019-01-05T09:42:50.357Z,5.90
2019-01-05T09:46:00.784Z,5.57
2019-01-05T09:49:00.571Z,3.90
2019-01-05T09:52:17.583Z,4.33
2019-01-05T09:55:43.859Z,6.30
2019-01-05T09:58:33.156Z,7.07
2019-01-05T10:01:47.494Z,6.40
2019-01-05T10:04:45.904Z,6.13
2019-01-05T10:07:46.038Z,5.50
2019-01-05T10:10:56.710Z,5.47
2019-01-05T10:13:58.377Z,5.10
2019-01-05T10:17:07.658Z,5.47
2019-01-05T10:20:09.418Z,4.17
2019-01-05T10:23:18.614Z,6.23
2019-01-05T10:26:34.182Z,6.10
2019-01-05T10:29:17.594Z,6.60
2019-01-05T10:32:01.797Z,7.23
2019-01-05T10:34:57.399Z,6.63
2019-01-05T10:37:51.033Z,5.57
2019-01-05T10:40:43.611Z,5.67
2019-01-05T10:43:59.653Z,4.73
2019-01-05T10:47:13.625Z,4.33
2019-01-05T10:50:31.082Z,4.53
2019-01-05T10:53:23.373Z,3.97
2019-01-05T10:56:39.635Z,3.87
2019-01-05T10:59:42.614Z,4.40
2019-01-05T11:02:28.918Z,4.27
2019-01-05T11:05:33.509Z,5.40
2019-01-05T11:08:54.971Z,4.23
2019-01-05T11:12:04.801Z,5.27
2019-01-05T11:14:59.114Z,5.20
2019-01-05T11:18:03.663Z,5.03
2019-01-05T11:20:48.007Z,5.00
2019-01-05T11:23:33.656Z,5.30
2019-01-05T11:26:28.789Z,4.77
2019-01-05T11:29:29.943Z,5.23
2019-01-05T11:32:45.444Z,4.90
2019-01-05T11:36:05.497Z,5.50
2019-01-05T11:39:16.493Z,4.13
2019-01-05T11:42:05.296Z,3.70
2019-01-05T11:45:29.363Z,3.53
2019-01-05T11:48:33.868Z,4.33
2019-01-05T11:51:35.494Z,4.50
2019-01-05T11:54:49.064Z,3.30
2019-01-05T11:57:39.975Z,2.77
2019-01-05T12:00:42.434Z,3.30
2019-01-05T12:03:31.126Z,3.43
2019-01-05T12:06:18.770Z,3.70
2019-01-05T12:09:09.848Z,3.63
2019-01-05T12:12:32.372Z,3.70
2019-01-05T12:15:22.475Z,3.90
2019-01-05T12:18:11.869Z,3.93
2019-01-05T12:21:19.369Z,3.90
2019-01-05T12:24:40.361Z,3.70
2019-01-05T12:27:32.657Z,3.57
2019-01-05T12:30:22.997Z,3.30
2019-01-05T12:33:16.486Z,3.77
2019-01-05T12:36:23.484Z,3.57
2019-01-05T12:39:29.520Z,3.63
2019-01-05T12:42:25.953Z,3.20
2019-01-05T12:45:41.336Z,3.23
2019-01-05T12:48:46.179Z,3.87
2019-01-05T12:51:53.484Z,3.40
2019-01-05T12:54:52.671Z,3.40
2019-01-05T12:58:04.870Z,3.00
2019-01-05T13:01:02.057Z,3.87
2019-01-05T13:04:03.492Z,3.70
2019-01-05T13:07:09.652Z,3.47
2019-01-05T13:10:17.329Z,3.57
2019-01-05T13:13:42.361Z,3.20
2019-01-05T13:16:16.878Z,3.73
2019-01-05T13:19:14.306Z,3.63
2019-01-05T13:22:11.104Z,3.47
2019-01-05T13:28:31.651Z,4.50
2019-01-05T13:31:33.224Z,5.17
2019-01-05T13:34:42.409Z,4.83
2019-01-05T13:37:25.507Z,4.97
2019-01-05T13:40:17.086Z,4.53
2019-01-05T13:43:26.297Z,4.33
2019-01-05T13:46:03.334Z,4.07
2019-01-05T13:49:03.300Z,4.17
2019-01-05T13:51:57.180Z,3.73
2019-01-05T13:54:44.917Z,4.57
2019-01-05T13:57:23.176Z,4.53
2019-01-05T14:00:10.043Z,4.80
2019-01-05T14:03:38.579Z,4.20
2019-01-05T14:06:28.808Z,4.43
2019-01-05T14:09:16.963Z,4.03
2019-01-05T14:11:52.313Z,4.30
2019-01-05T14:14:27.247Z,3.80
2019-01-05T14:17:16.582Z,4.20
2019-01-05T14:20:11.810Z,4.00
2019-01-05T14:22:55.735Z,4.03
2019-01-05T14:25:37.640Z,4.10
2019-01-05T14:28:30.346Z,4.10
2019-01-05T14:31:18.067Z,11.97
2019-01-05T14:34:07.918Z,10.13
2019-01-05T14:37:04.807Z,8.17
2019-01-05T14:39:37.021Z,4.13
2019-01-05T14:42:28.319Z,5.83
2019-01-05T14:45:00.627Z,9.83
2019-01-05T14:47:50.437Z,4.90
2019-01-05T14:50:29.054Z,4.43
2019-01-05T14:53:11.530Z,5.57
2019-01-05T14:56:02.679Z,5.40
2019-01-05T14:58:54.272Z,5.60
2019-01-05T15:01:28.468Z,5.37
2019-01-05T15:07:16.231Z,6.33
2019-01-05T15:09:51.675Z,9.93
2019-01-05T15:12:27.927Z,5.90
2019-01-05T15:14:59.390Z,8.90
2019-01-05T15:17:51.019Z,8.23
2019-01-05T15:20:39.365Z,4.23
2019-01-05T15:23:10.788Z,4.03
2019-01-05T15:25:58.861Z,3.53
2019-01-05T15:28:33.276Z,4.20
2019-01-05T15:31:22.642Z,2.57
2019-01-05T15:34:15.400Z,2.93
2019-01-05T15:37:08.001Z,3.30
2019-01-05T15:39:48.001Z,3.40
2019-01-05T15:42:26.679Z,3.30
2019-01-05T15:45:01.568Z,3.20
2019-01-05T15:47:54.708Z,3.40
2019-01-05T15:50:42.894Z,2.80
2019-01-05T15:53:21.394Z,4.13
2019-01-05T15:56:02.988Z,3.53
2019-01-05T15:58:43.611Z,4.40
2019-01-05T16:01:14.987Z,3.67
2019-01-05T16:03:54.166Z,7.47
2019-01-05T16:06:29.351Z,3.60
2019-01-05T16:09:16.910Z,4.17
2019-01-05T16:12:10.349Z,4.10
2019-01-05T16:14:50.088Z,4.20
2019-01-05T16:17:30.808Z,5.37
2019-01-05T16:20:02.432Z,6.03
2019-01-05T16:22:40.034Z,4.63
2019-01-05T16:25:15.962Z,4.47
2019-01-05T16:27:47.297Z,4.60
2019-01-05T16:30:28.444Z,5.57
2019-01-05T16:33:05.651Z,4.07
2019-01-05T16:35:48.923Z,4.77
2019-01-05T16:38:36.457Z,5.17
2019-01-05T16:41:19.899Z,5.07
2019-01-05T16:43:53.972Z,3.40
2019-01-05T16:46:25.362Z,3.20
2019-01-05T16:49:06.379Z,3.37
2019-01-05T16:51:49.982Z,3.67
2019-01-05T16:54:26.132Z,2.43
2019-01-05T16:57:04.674Z,2.00
2019-01-05T16:59:46.607Z,3.33
2019-01-05T17:02:18.130Z,2.93
2019-01-05T17:05:01.514Z,3.40
2019-01-05T17:07:33.060Z,3.03
2019-01-05T17:10:04.518Z,4.97
2019-01-05T17:12:35.967Z,4.13
2019-01-05T17:15:17.455Z,4.23
2019-01-05T17:17:54.936Z,4.30
2019-01-05T17:20:32.379Z,5.33
2019-01-05T17:23:18.580Z,7.07
2019-01-05T17:29:37.402Z,6.63
2019-01-05T17:32:17.661Z,6.63
2019-01-05T17:35:05.481Z,4.40
2019-01-05T17:37:39.918Z,3.37
2019-01-05T17:40:27.457Z,4.87
2019-01-05T17:43:10.832Z,5.57
2019-01-05T17:45:48.375Z,13.67
2019-01-05T17:48:25.720Z,9.13
2019-01-05T17:51:00.748Z,7.57
2019-01-05T17:53:39.126Z,18.27
2019-01-05T17:56:20.840Z,7.77
2019-01-05T17:58:54.271Z,5.90
2019-01-05T18:01:41.306Z,5.60
2019-01-05T18:04:18.657Z,5.30
2019-01-05T18:07:09.849Z,4.80
2019-01-05T18:09:58.232Z,5.40
2019-01-05T18:12:33.522Z,8.60
2019-01-05T18:15:12.838Z,7.80
2019-01-05T18:17:47.203Z,7.47
2019-01-05T18:20:24.716Z,6.17
2019-01-05T18:22:58.877Z,6.80
2019-01-05T18:25:42.175Z,6.70
2019-01-05T18:28:19.608Z,5.17
2019-01-05T18:30:53.792Z,4.87
2019-01-05T18:33:41.581Z,4.90
2019-01-05T18:36:29.225Z,2.53
2019-01-05T18:39:09.666Z,2.60
2019-01-05T18:41:41.013Z,3.60
2019-01-05T18:44:15.375Z,4.27
2019-01-05T18:46:57.172Z,4.70
2019-01-05T18:49:45.662Z,5.50
2019-01-05T18:52:34.920Z,10.47
2019-01-05T18:55:06.317Z,13.43
2019-01-05T18:57:50.830Z,8.50
2019-01-05T19:00:38.885Z,5.90
2019-01-05T19:03:26.655Z,5.70
2019-01-05T19:06:00.807Z,6.03
2019-01-05T19:08:35.533Z,8.03
2019-01-05T19:11:07.049Z,8.60
2019-01-05T19:13:47.275Z,6.80
2019-01-05T19:16:30.677Z,7.03
2019-01-05T19:19:02.042Z,3.83
2019-01-05T19:21:36.500Z,3.60
2019-01-05T19:24:10.812Z,5.13
2019-01-05T19:26:50.506Z,6.60
2019-01-05T19:29:22.358Z,6.20
2019-01-05T19:32:13.497Z,5.77
2019-01-05T19:34:49.012Z,6.90
2019-01-05T19:37:26.229Z,6.20
2019-01-05T19:40:09.872Z,6.70
2019-01-05T19:43:03.629Z,7.17
2019-01-05T19:45:54.801Z,6.90
2019-01-05T19:48:30.005Z,7.03
2019-01-05T19:51:01.503Z,6.10
2019-01-05T19:53:34.093Z,5.77
2019-01-05T19:56:21.601Z,6.30
2019-01-05T19:58:58.822Z,5.67
2019-01-05T20:01:33.239Z,5.00
2019-01-05T20:04:07.896Z,5.43
2019-01-05T20:06:53.179Z,5.60
2019-01-05T20:09:41.448Z,6.00
2019-01-05T20:12:23.795Z,5.80
2019-01-05T20:15:12.692Z,5.93
2019-01-05T20:17:47.452Z,6.10
2019-01-05T20:20:18.826Z,6.10
2019-01-05T20:22:55.875Z,6.20
2019-01-05T20:25:36.119Z,5.77
2019-01-05T20:28:16.635Z,6.00
2019-01-05T20:31:03.479Z,6.70
2019-01-05T20:33:35.022Z,6.33
2019-01-05T20:36:24.493Z,6.37
2019-01-05T20:39:12.656Z,7.00
2019-01-05T20:42:00.785Z,6.97
2019-01-05T20:44:38.537Z,6.27
2019-01-05T20:47:30.522Z,6.67
2019-01-05T20:50:18.284Z,12.10
2019-01-05T20:53:01.858Z,10.27
2019-01-05T20:55:40.225Z,7.77
2019-01-05T20:58:26.429Z,9.40
2019-01-05T21:01:13.967Z,13.30
2019-01-05T21:04:10.417Z,7.87
2019-01-05T21:07:01.790Z,8.10
2019-01-05T21:09:33.961Z,9.10
2019-01-05T21:12:24.861Z,10.77
2019-01-05T21:14:56.267Z,10.17
2019-01-05T21:17:45.833Z,12.27
2019-01-05T21:20:17.325Z,8.57
2019-01-05T21:22:48.660Z,9.83
2019-01-05T21:25:36.012Z,9.33
2019-01-05T21:28:23.517Z,9.13
2019-01-05T21:31:00.999Z,8.90
2019-01-05T21:33:47.121Z,8.33
2019-01-05T21:36:25.241Z,11.13
2019-01-05T21:39:02.608Z,14.70
2019-01-05T21:41:46.814Z,13.70
2019-01-05T21:44:37.348Z,13.43
2019-01-05T21:47:31.307Z,14.20
2019-01-05T21:50:18.135Z,10.20
2019-01-05T21:53:05.506Z,9.93
2019-01-05T21:55:48.784Z,9.97
2019-01-05T21:58:35.053Z,9.40
2019-01-05T22:01:21.310Z,8.67
2019-01-05T22:03:52.762Z,9.67
2019-01-05T22:06:36.681Z,8.77
2019-01-05T22:09:09.528Z,9.07
2019-01-05T22:11:43.872Z,9.43
2019-01-05T22:14:15.236Z,9.23
2019-01-05T22:16:57.571Z,9.60
2019-01-05T22:19:33.719Z,9.57
2019-01-05T22:22:22.395Z,10.03
2019-01-05T22:25:01.231Z,9.10
2019-01-05T22:27:48.805Z,9.87
2019-01-05T22:30:36.154Z,8.97
2019-01-05T22:33:16.372Z,9.00
2019-01-05T22:36:05.769Z,9.63
2019-01-05T22:38:41.746Z,18.70
2019-01-05T22:41:30.251Z,19.07
2019-01-05T22:44:01.939Z,15.97
2019-01-05T22:46:33.408Z,10.50
2019-01-05T22:49:22.860Z,9.67
2019-01-05T22:54:52.262Z,9.97
2019-01-05T22:57:31.378Z,10.00
2019-01-05T23:00:03.184Z,10.43
2019-01-05T23:02:54.224Z,10.97
2019-01-05T23:05:32.730Z,10.27
2019-01-05T23:08:08.884Z,10.83
2019-01-05T23:10:56.195Z,10.80
2019-01-05T23:13:39.439Z,12.53
2019-01-05T23:16:12.307Z,10.97
2019-01-05T23:18:55.556Z,10.90
2019-01-05T23:21:41.408Z,9.47
2019-01-05T23:24:14.079Z,13.33
2019-01-05T23:27:05.876Z,13.63
2019-01-05T23:29:39.098Z,10.17
2019-01-05T23:32:10.488Z,12.17
2019-01-05T23:34:44.743Z,11.63
2019-01-05T23:37:21.846Z,10.23
2019-01-05T23:39:56.312Z,10.77
2019-01-05T23:42:33.464Z,13.83
2019-01-05T23:45:20.980Z,12.90
2019-01-05T23:47:52.369Z,12.73
2019-01-05T23:50:29.488Z,12.03
2019-01-05T23:53:17.153Z,12.07
2019-01-05T23:56:04.647Z,13.43
2019-01-05T23:58:36.021Z,12.70
